Time;durP1;ratioP1;P1;durP2;ratioP2;P2;SDS_P1;SDS_P2;PMS_P1;PMS_P2;Temp;Humidity;BMP_temperature;BMP_pressure;BME280_temperature;BME280_humidity;BME280_pressure;Samples;Min_cycle;Max_cycle;Signal;HPM_P1;HPM_P2
2023/01/17 00:02:22;;;;;;;13.70;3.95;;;;;;;6.09;81.93;98403.13;4978184;28;20053;-75
2023/01/17 00:10:24;;;;;;;15.95;4.50;;;;;;;5.50;78.63;98395.25;4994374;28;20058;-73
2023/01/17 00:12:56;;;;;;;;;;;;;;;5.39;79.25;98396.00;4943256;28;20059;-75
2023/01/17 00:15:38;;;;;;;13.20;3.53;;;;;;;4.96;80.83;98396.38;4962576;28;19937;-74
2023/01/17 00:18:06;;;;;;;14.55;4.10;;;;;;;5.02;81.67;98394.25;4980884;28;20073;-74
2023/01/17 00:26:18;;;;;;;15.18;4.95;;;;;;;5.25;80.43;98385.38;4999870;28;20057;-75
2023/01/17 01:33:52;;;;;;;10.27;3.13;;;;;;;5.31;80.17;98345.03;5014801;28;20062;-74
2023/01/17 01:36:20;;;;;;;11.93;3.50;;;;;;;5.53;80.42;98339.97;5014567;28;20049;-75
2023/01/17 01:38:49;;;;;;;10.25;3.28;;;;;;;5.57;79.48;98340.09;4999586;28;20046;-76
2023/01/17 01:41:16;;;;;;;8.32;3.05;;;;;;;5.36;79.87;98342.91;4998975;28;20050;-75
2023/01/17 01:43:52;;;;;;;15.15;3.67;;;;;;;5.52;80.19;98345.78;4999446;28;20046;-75
2023/01/17 01:46:31;;;;;;;14.07;4.25;;;;;;;5.56;79.86;98341.25;5013186;28;20524;-74
2023/01/17 01:49:24;;;;;;;8.75;3.20;;;;;;;5.41;80.06;98334.50;4960186;28;20058;-73
2023/01/17 01:52:00;;;;;;;10.95;3.15;;;;;;;5.37;80.80;98339.00;5002746;28;20058;-74
2023/01/17 01:54:39;;;;;;;13.52;3.33;;;;;;;5.65;80.24;98334.53;4955322;28;20061;-75
2023/01/17 01:57:14;;;;;;;11.23;3.05;;;;;;;5.61;79.38;98324.63;4978080;28;20054;-74
2023/01/17 01:59:48;;;;;;;15.27;3.08;;;;;;;5.63;80.25;98325.09;4959528;28;20046;-73
2023/01/17 02:02:16;;;;;;;10.05;3.40;;;;;;;5.66;79.59;98322.50;4980651;28;20391;-75
2023/01/17 02:04:44;;;;;;;15.02;3.15;;;;;;;5.46;80.29;98314.34;4998312;28;20054;-74
2023/01/17 02:07:15;;;;;;;8.48;3.03;;;;;;;5.55;80.22;98312.31;4999129;28;20054;-74
2023/01/17 02:09:43;;;;;;;7.93;3.00;;;;;;;5.41;79.92;98304.47;4981721;28;20050;-74
2023/01/17 02:12:11;;;;;;;11.13;3.17;;;;;;;5.44;80.43;98300.28;4998310;28;20050;-74
2023/01/17 02:14:39;;;;;;;16.25;3.95;;;;;;;5.46;80.02;98292.50;4997706;28;20050;-75
2023/01/17 02:17:31;;;;;;;13.02;3.40;;;;;;;5.38;80.42;98296.97;4988262;28;20058;-74
2023/01/17 02:20:32;;;;;;;13.38;3.55;;;;;;;5.44;79.88;98295.59;4994245;28;20066;-74
2023/01/17 02:23:19;;;;;;;9.82;3.25;;;;;;;5.50;79.86;98290.72;4993511;28;20050;-75
2023/01/17 02:25:46;;;;;;;14.38;3.58;;;;;;;5.53;79.34;98282.63;4997701;28;20390;-75
2023/01/17 02:28:38;;;;;;;14.00;3.90;;;;;;;5.43;80.04;98287.75;4996428;28;20051;-74
2023/01/17 02:31:36;;;;;;;12.38;3.63;;;;;;;5.34;80.52;98273.38;5006169;28;20089;-74
2023/01/17 02:34:23;;;;;;;10.77;3.25;;;;;;;5.29;80.45;98282.59;4985138;28;20057;-75
2023/01/17 02:36:57;;;;;;;13.25;3.60;;;;;;;5.34;80.24;98270.66;4973149;28;20093;-73
2023/01/17 02:39:30;;;;;;;9.43;3.92;;;;;;;5.33;80.19;98260.88;4992202;28;20046;-73
2023/01/17 02:42:05;;;;;;;16.80;4.03;;;;;;;5.35;80.29;98253.94;4986711;28;20073;-73
2023/01/17 02:44:39;;;;;;;12.75;3.78;;;;;;;5.11;80.39;98250.41;4992774;28;20054;-73
2023/01/17 02:47:23;;;;;;;10.20;4.03;;;;;;;5.05;81.34;98240.81;5023371;28;20057;-74
2023/01/17 02:49:55;;;;;;;9.60;3.47;;;;;;;5.05;81.10;98241.63;4983091;28;20415;-74
2023/01/17 02:52:42;;;;;;;16.00;4.10;;;;;;;5.02;81.94;98234.09;4995510;28;20046;-75
2023/01/17 02:55:22;;;;;;;12.65;4.18;;;;;;;5.25;80.55;98229.03;5012987;28;20054;-74
2023/01/17 02:58:14;;;;;;;15.73;4.18;;;;;;;5.28;80.93;98212.75;4945687;29;20418;-74
2023/01/17 03:01:00;;;;;;;16.38;4.25;;;;;;;5.06;81.73;98223.31;4967389;28;20053;-75
2023/01/17 03:03:32;;;;;;;14.27;4.40;;;;;;;5.02;81.69;98219.69;4998760;28;20486;-73
2023/01/17 03:06:10;;;;;;;16.02;4.18;;;;;;;5.01;82.03;98201.69;4997160;28;20077;-73
2023/01/17 03:08:43;;;;;;;18.95;4.93;;;;;;;5.01;82.12;98198.97;4965724;28;20234;-75
2023/01/17 03:11:11;;;;;;;18.48;5.65;;;;;;;4.95;82.12;98200.34;4980683;28;20050;-74
2023/01/17 03:13:41;;;;;;;10.30;4.70;;;;;;;4.95;82.01;98203.84;4994419;28;20519;-73
2023/01/17 03:16:22;;;;;;;11.43;4.68;;;;;;;4.82;82.92;98195.97;4984298;28;20057;-74
2023/01/17 03:18:50;;;;;;;18.55;5.70;;;;;;;4.90;82.87;98184.19;4993392;28;20049;-74
2023/01/17 03:21:17;;;;;;;15.65;5.28;;;;;;;5.07;82.41;98179.34;4993083;28;20626;-75
2023/01/17 03:23:45;;;;;;;18.73;5.13;;;;;;;4.68;83.16;98179.13;4978073;28;20062;-74
2023/01/17 03:26:13;;;;;;;12.38;5.70;;;;;;;4.71;83.88;98178.47;4975712;28;20059;-76
2023/01/17 03:28:40;;;;;;;19.08;6.38;;;;;;;4.43;84.19;98175.50;4997505;28;20054;-75
2023/01/17 03:31:08;;;;;;;15.45;5.85;;;;;;;4.58;84.91;98174.91;4998571;28;20050;-74
2023/01/17 03:33:36;;;;;;;10.77;5.88;;;;;;;4.21;85.23;98176.69;4981289;28;20046;-73
2023/01/17 03:36:04;;;;;;;17.60;6.10;;;;;;;4.22;85.56;98169.31;4998230;28;20736;-74
2023/01/17 03:38:31;;;;;;;16.98;6.53;;;;;;;4.28;85.93;98176.94;4977830;28;20043;-74
2023/01/17 03:40:59;;;;;;;15.30;6.30;;;;;;;4.31;86.22;98165.38;4980254;28;20073;-73
2023/01/17 03:43:26;;;;;;;18.52;6.90;;;;;;;4.31;86.39;98159.91;5012600;28;20053;-73
2023/01/17 03:46:04;;;;;;;16.08;6.10;;;;;;;4.51;85.54;98161.81;5012066;28;20042;-73
2023/01/17 03:48:32;;;;;;;14.77;6.50;;;;;;;4.61;84.89;98160.59;4997760;28;20046;-74
2023/01/17 03:50:59;;;;;;;15.77;6.95;;;;;;;4.28;85.54;98157.06;5000184;28;20521;-74
2023/01/17 03:53:26;;;;;;;16.08;6.28;;;;;;;4.73;85.14;98154.34;4966127;28;20054;-74
2023/01/17 03:55:54;;;;;;;15.15;6.60;;;;;;;4.93;83.71;98156.22;5015666;28;20061;-73
2023/01/17 03:58:21;;;;;;;17.52;6.30;;;;;;;4.98;83.44;98154.09;4983581;28;20054;-75
2023/01/17 04:00:49;;;;;;;18.13;6.45;;;;;;;4.88;83.05;98145.53;5004160;28;20050;-74
2023/01/17 04:03:16;;;;;;;17.60;6.85;;;;;;;4.94;83.00;98142.25;4996446;28;20043;-73
2023/01/17 04:05:45;;;;;;;22.52;7.63;;;;;;;4.65;82.22;98144.34;5004121;28;20056;-74
2023/01/17 04:08:12;;;;;;;17.10;7.57;;;;;;;4.78;82.69;98137.81;5011105;28;20050;-73
2023/01/17 04:10:40;;;;;;;17.90;7.05;;;;;;;4.58;83.42;98137.50;5002129;28;20058;-74
2023/01/17 04:13:07;;;;;;;14.43;6.40;;;;;;;4.85;82.94;98136.09;5011019;28;20050;-74
2023/01/17 04:15:35;;;;;;;15.23;7.00;;;;;;;4.84;82.92;98133.72;5000599;28;20489;-74
2023/01/17 04:18:03;;;;;;;18.45;7.47;;;;;;;4.58;83.73;98140.25;5011027;28;20552;-73
2023/01/17 04:20:34;;;;;;;16.60;7.28;;;;;;;4.81;83.64;98137.94;4984893;28;20415;-73
2023/01/17 04:23:02;;;;;;;18.23;7.57;;;;;;;4.90;82.98;98135.88;4995715;28;20046;-74
2023/01/17 04:25:30;;;;;;;17.40;7.22;;;;;;;4.56;83.36;98133.53;4984822;28;20070;-74
2023/01/17 04:27:58;;;;;;;15.43;6.90;;;;;;;4.83;83.54;98129.41;4997517;28;20054;-74
2023/01/17 04:30:27;;;;;;;19.13;8.27;;;;;;;4.90;82.75;98129.66;4966105;28;20058;-73
2023/01/17 04:32:55;;;;;;;11.48;7.13;;;;;;;4.87;82.93;98136.56;4982604;28;20049;-67
2023/01/17 04:35:23;;;;;;;15.82;7.57;;;;;;;4.55;82.91;98130.00;4979777;28;20046;-67
2023/01/17 04:37:50;;;;;;;18.13;7.25;;;;;;;4.66;84.85;98133.09;4995888;28;20050;-67
2023/01/17 04:40:18;;;;;;;21.85;8.80;;;;;;;4.29;85.11;98123.22;4980194;28;20050;-68
2023/01/17 04:42:46;;;;;;;22.52;8.68;;;;;;;3.93;86.13;98115.72;4996881;28;20054;-67
2023/01/17 04:45:14;;;;;;;17.35;7.95;;;;;;;4.25;86.83;98120.38;4962777;28;20054;-68
2023/01/17 04:47:42;;;;;;;19.35;8.77;;;;;;;3.95;87.38;98118.91;4980120;28;20061;-67
2023/01/17 04:50:10;;;;;;;21.65;8.85;;;;;;;4.27;87.17;98123.56;4994241;28;20062;-73
2023/01/17 04:52:38;;;;;;;15.80;8.25;;;;;;;4.02;87.33;98108.28;4999529;28;20054;-73
2023/01/17 04:55:06;;;;;;;18.38;8.77;;;;;;;4.29;87.54;98106.88;4983607;28;20055;-73
2023/01/17 04:57:33;;;;;;;15.95;8.27;;;;;;;4.41;86.78;98105.00;4981595;28;20064;-73
2023/01/17 05:00:01;;;;;;;20.25;8.43;;;;;;;4.56;85.92;98100.84;4966048;28;20066;-68
2023/01/17 05:02:29;;;;;;;23.00;9.43;;;;;;;4.44;85.74;98104.34;5001900;28;20062;-75
2023/01/17 05:04:56;;;;;;;17.80;8.55;;;;;;;4.23;86.40;98098.16;4998373;28;20047;-75
2023/01/17 05:07:24;;;;;;;19.08;9.32;;;;;;;4.16;87.16;98087.00;4989788;28;20051;-74
2023/01/17 05:09:51;;;;;;;22.40;8.88;;;;;;;4.10;87.28;98091.03;4982821;28;20073;-74
2023/01/17 05:12:19;;;;;;;16.48;8.55;;;;;;;4.23;87.26;98084.53;4999870;28;20074;-74
2023/01/17 05:14:46;;;;;;;25.67;9.27;;;;;;;4.33;86.99;98083.28;5000642;28;20088;-73
2023/01/17 05:17:13;;;;;;;27.67;9.98;;;;;;;4.27;86.92;98074.53;4998851;28;20050;-74
2023/01/17 05:19:41;;;;;;;18.63;9.43;;;;;;;4.17;86.88;98069.50;4984569;28;20078;-74
2023/01/17 05:22:14;;;;;;;22.45;8.98;;;;;;;4.37;86.74;98065.13;5013071;28;20050;-74
2023/01/17 05:24:46;;;;;;;17.40;9.27;;;;;;;3.96;86.88;98070.66;4996658;28;20054;-75
2023/01/17 05:27:13;;;;;;;26.17;9.73;;;;;;;3.94;88.53;98068.28;4997295;28;20061;-73
2023/01/17 05:29:41;;;;;;;18.90;9.52;;;;;;;4.02;88.30;98059.25;4984204;28;20046;-74
2023/01/17 05:32:08;;;;;;;24.27;10.45;;;;;;;4.33;87.22;98058.75;4997715;28;20054;-73
2023/01/17 05:34:36;;;;;;;18.42;9.50;;;;;;;4.41;86.10;98057.91;4968024;28;20523;-74
2023/01/17 05:37:03;;;;;;;20.50;9.68;;;;;;;4.49;85.39;98046.88;4997211;28;20807;-73
2023/01/17 05:39:31;;;;;;;20.17;9.98;;;;;;;4.43;85.77;98047.41;4986949;28;20042;-74
2023/01/17 05:41:58;;;;;;;20.40;9.70;;;;;;;4.32;85.23;98041.59;4995956;28;20065;-74
2023/01/17 05:44:26;;;;;;;21.02;9.77;;;;;;;4.36;85.05;98045.25;4989695;28;20043;-74
2023/01/17 05:46:55;;;;;;;18.58;9.13;;;;;;;4.38;85.38;98048.44;4998827;28;20068;-74
2023/01/17 05:49:22;;;;;;;16.90;8.38;;;;;;;4.40;85.07;98040.75;4968962;28;20062;-75
2023/01/17 05:51:50;;;;;;;20.10;9.00;;;;;;;4.39;84.68;98036.41;4983747;28;20062;-73
2023/01/17 05:54:21;;;;;;;21.55;8.38;;;;;;;4.70;84.17;98043.25;4979713;28;20403;-73
2023/01/17 05:56:48;;;;;;;19.90;8.45;;;;;;;4.87;83.55;98043.03;4984050;28;20491;-73
2023/01/17 05:59:16;;;;;;;19.90;8.30;;;;;;;4.57;83.50;98045.16;4998750;28;20506;-74
2023/01/17 06:02:02;;;;;;;19.00;8.02;;;;;;;4.65;83.88;98040.75;5000149;28;20050;-74
2023/01/17 06:04:29;;;;;;;14.93;7.60;;;;;;;4.52;83.97;98038.03;4995500;28;20046;-74
2023/01/17 06:06:57;;;;;;;15.75;7.63;;;;;;;4.53;84.70;98034.16;4995574;28;20054;-74
2023/01/17 06:09:25;;;;;;;18.48;7.70;;;;;;;4.58;84.62;98033.16;4995247;28;20038;-75
2023/01/17 06:11:52;;;;;;;20.05;7.63;;;;;;;4.55;84.98;98031.88;5009049;28;20065;-75
2023/01/17 06:14:19;;;;;;;20.23;7.40;;;;;;;4.70;84.53;98026.91;4995935;28;20418;-75
2023/01/17 06:16:47;;;;;;;16.23;7.75;;;;;;;4.77;83.79;98027.13;4993294;28;20141;-73
2023/01/17 06:19:15;;;;;;;14.50;7.38;;;;;;;4.55;85.11;98036.53;4999425;28;20039;-75
2023/01/17 06:21:42;;;;;;;19.42;8.43;;;;;;;4.68;84.30;98032.69;4994056;28;20791;-75
2023/01/17 06:24:10;;;;;;;15.43;7.97;;;;;;;4.63;84.47;98029.41;4998517;28;20046;-75
2023/01/17 06:26:37;;;;;;;19.40;8.63;;;;;;;4.86;84.44;98016.91;4992591;28;20050;-75
2023/01/17 06:29:05;;;;;;;21.27;8.38;;;;;;;4.66;83.97;98025.97;4982293;28;20063;-75
2023/01/17 06:31:32;;;;;;;20.48;8.95;;;;;;;4.76;84.08;98026.31;4983236;28;20055;-75
2023/01/17 06:34:03;;;;;;;21.65;9.32;;;;;;;4.58;84.68;98028.47;4982660;28;20046;-75
2023/01/17 06:36:34;;;;;;;18.70;8.90;;;;;;;4.42;85.85;98026.78;4999027;28;20410;-74
2023/01/17 06:39:01;;;;;;;18.77;9.98;;;;;;;4.49;86.46;98037.91;4997100;28;20062;-73
2023/01/17 06:41:29;;;;;;;20.90;10.68;;;;;;;4.35;87.19;98040.16;5006943;28;20054;-75
2023/01/17 06:43:56;;;;;;;27.63;13.20;;;;;;;4.30;87.72;98033.00;5002685;28;20050;-74
2023/01/17 06:46:24;;;;;;;18.48;10.88;;;;;;;4.37;87.65;98038.69;5001039;28;20049;-75
2023/01/17 06:48:52;;;;;;;21.52;10.40;;;;;;;4.55;87.29;98028.34;5018012;28;20054;-74
2023/01/17 06:51:19;;;;;;;22.35;11.27;;;;;;;4.55;87.45;98023.72;5000952;28;20046;-77
2023/01/17 06:53:47;;;;;;;29.05;11.07;;;;;;;4.53;86.74;98025.19;5002586;28;20054;-77
2023/01/17 06:56:15;;;;;;;26.08;12.05;;;;;;;4.42;87.46;98022.13;4991352;28;20047;-75
2023/01/17 06:58:42;;;;;;;25.25;11.02;;;;;;;4.15;89.11;98024.69;4982282;28;20051;-75
2023/01/17 07:01:11;;;;;;;29.08;12.80;;;;;;;4.39;88.58;98032.91;4993680;28;20046;-75
2023/01/17 07:03:39;;;;;;;27.88;11.27;;;;;;;4.40;88.45;98029.03;4965156;28;20039;-74
2023/01/17 07:06:08;;;;;;;22.38;10.40;;;;;;;4.44;88.78;98024.50;4984109;28;20050;-74
2023/01/17 07:08:36;;;;;;;33.23;12.27;;;;;;;4.52;88.58;98023.59;4979947;28;20158;-75
2023/01/17 07:11:06;;;;;;;27.25;11.07;;;;;;;4.72;87.57;98030.91;4985972;28;20055;-75
2023/01/17 07:13:35;;;;;;;21.30;11.63;;;;;;;4.57;87.87;98023.38;4984223;28;20051;-73
2023/01/17 07:16:03;;;;;;;23.25;11.98;;;;;;;4.54;87.58;98024.84;4988286;28;20065;-73
2023/01/17 07:18:32;;;;;;;24.08;11.23;;;;;;;4.53;88.29;98031.44;5018868;28;20050;-74
2023/01/17 07:21:00;;;;;;;21.20;11.77;;;;;;;4.85;87.43;98029.75;4978749;28;20054;-72
2023/01/17 07:23:28;;;;;;;27.30;11.65;;;;;;;4.62;87.43;98036.00;4978499;28;20059;-71
2023/01/17 07:25:58;;;;;;;20.63;11.00;;;;;;;4.65;88.27;98040.75;4965193;28;20066;-71
2023/01/17 07:28:26;;;;;;;27.08;11.80;;;;;;;4.86;90.10;98033.28;4981624;28;20066;-72
2023/01/17 07:30:54;;;;;;;25.67;11.07;;;;;;;5.10;91.66;98031.34;4991817;28;20055;-70
2023/01/17 07:33:22;;;;;;;23.85;10.45;;;;;;;5.33;91.26;98020.72;4992234;28;20058;-72
2023/01/17 07:35:49;;;;;;;23.60;11.15;;;;;;;5.33;89.57;98007.88;5005504;28;20057;-71
2023/01/17 07:38:18;;;;;;;24.65;11.00;;;;;;;5.49;86.98;98014.19;4978356;28;20051;-72
2023/01/17 07:40:46;;;;;;;26.00;10.90;;;;;;;5.50;86.67;97999.41;4969923;28;20062;-68
2023/01/17 07:43:13;;;;;;;25.00;11.88;;;;;;;5.81;86.51;98015.09;4994303;28;20608;-70
2023/01/17 07:45:48;;;;;;;26.15;12.50;;;;;;;5.74;84.81;98012.97;4994570;28;20058;-70
2023/01/17 07:48:21;;;;;;;25.40;12.32;;;;;;;5.29;85.63;98017.88;4980093;28;20410;-69
2023/01/17 07:50:56;;;;;;;26.50;13.18;;;;;;;5.08;85.90;98022.69;4964065;28;20042;-68
2023/01/17 07:53:29;;;;;;;33.33;16.13;;;;;;;5.44;87.23;98017.16;4977454;28;20055;-70
2023/01/17 07:56:03;;;;;;;29.05;12.32;;;;;;;5.53;86.46;98026.00;4986001;28;20046;-70
2023/01/17 07:58:31;;;;;;;19.85;11.13;;;;;;;5.69;85.05;98018.69;4981264;28;20062;-70
2023/01/17 08:01:04;;;;;;;23.38;11.35;;;;;;;5.40;85.15;98032.66;4997528;28;20062;-70
2023/01/17 08:03:35;;;;;;;15.73;9.73;;;;;;;5.41;85.76;98030.69;4976903;28;20042;-71
2023/01/17 08:06:03;;;;;;;27.60;11.27;;;;;;;5.65;85.83;98027.91;4975392;28;20055;-72
2023/01/17 08:08:30;;;;;;;21.33;11.05;;;;;;;5.57;84.59;98026.13;4983309;28;20051;-70
2023/01/17 08:10:58;;;;;;;31.27;12.07;;;;;;;5.47;85.03;98026.59;4985470;28;20050;-71
2023/01/17 08:13:25;;;;;;;27.55;11.20;;;;;;;5.52;85.01;98023.63;4970755;28;20051;-72
2023/01/17 08:15:56;;;;;;;;;;;;;;;5.31;85.28;98031.19;4985905;28;20050;-70
2023/01/17 08:18:23;;;;;;;20.98;11.05;;;;;;;5.28;85.59;98029.16;4996759;28;19922;-69
2023/01/17 08:20:50;;;;;;;22.17;10.45;;;;;;;5.42;85.72;98037.75;5001803;28;20546;-68
2023/01/17 08:23:17;;;;;;;21.40;10.30;;;;;;;5.58;85.12;98035.88;4986529;28;20054;-73
2023/01/17 08:25:45;;;;;;;18.77;10.18;;;;;;;5.42;85.32;98032.31;4983097;28;20047;-70
2023/01/17 08:28:14;;;;;;;25.55;11.32;;;;;;;5.46;84.87;98038.63;4951374;28;20065;-71
2023/01/17 08:30:42;;;;;;;23.63;11.43;;;;;;;5.25;84.66;98038.00;4979934;28;21466;-71
2023/01/17 08:33:09;;;;;;;18.58;10.82;;;;;;;5.35;85.24;98037.56;4993255;28;20054;-71
2023/01/17 08:35:37;;;;;;;21.30;11.13;;;;;;;5.35;85.60;98038.31;4964310;28;20050;-71
2023/01/17 08:38:04;;;;;;;24.35;10.95;;;;;;;5.09;86.29;98032.44;5006232;28;20047;-70
2023/01/17 08:40:32;;;;;;;16.60;10.27;;;;;;;5.06;86.82;98027.69;4989182;28;20058;-71
2023/01/17 08:43:00;;;;;;;21.90;10.95;;;;;;;5.15;86.12;98027.56;4976539;28;20054;-71
2023/01/17 08:45:28;;;;;;;18.80;10.07;;;;;;;5.12;86.33;98030.97;4978924;28;20054;-70
2023/01/17 08:47:56;;;;;;;19.35;9.23;;;;;;;5.11;86.66;98029.41;4959509;28;20050;-71
2023/01/17 08:50:25;;;;;;;24.00;10.70;;;;;;;5.27;86.07;98030.28;4960285;28;20502;-71
2023/01/17 08:52:57;;;;;;;24.65;10.10;;;;;;;5.38;84.69;98031.41;4981713;28;20062;-70
2023/01/17 08:55:27;;;;;;;27.75;9.32;;;;;;;5.44;84.29;98028.06;4973280;28;20058;-70
2023/01/17 08:57:55;;;;;;;18.88;8.57;;;;;;;5.19;84.47;98032.00;4991376;28;20065;-70
2023/01/17 09:00:23;;;;;;;23.33;9.43;;;;;;;5.10;85.09;98028.59;4977109;28;20061;-71
2023/01/17 09:02:52;;;;;;;15.52;8.38;;;;;;;5.11;84.69;98026.69;4978134;28;20059;-70
2023/01/17 09:05:22;;;;;;;24.63;9.30;;;;;;;4.79;85.16;98022.94;4961854;28;20679;-70
2023/01/17 09:07:49;;;;;;;27.08;9.32;;;;;;;5.04;85.60;98027.22;4956527;28;20058;-70
2023/01/17 09:10:17;;;;;;;24.88;9.30;;;;;;;4.92;85.33;98023.72;4989492;28;20105;-68
2023/01/17 09:12:52;;;;;;;22.33;9.02;;;;;;;5.00;85.61;98023.63;4989212;28;20055;-70
2023/01/17 09:15:23;;;;;;;21.75;8.20;;;;;;;4.79;85.21;98024.88;4971225;28;20047;-70
2023/01/17 09:17:54;;;;;;;18.55;7.70;;;;;;;5.09;85.30;98024.28;4976202;28;20050;-70
2023/01/17 09:20:23;;;;;;;16.90;7.95;;;;;;;5.28;84.47;98029.16;4992730;28;20051;-73
2023/01/17 09:22:51;;;;;;;18.08;8.20;;;;;;;5.04;84.09;98027.22;4993446;28;20046;-68
2023/01/17 09:25:18;;;;;;;17.85;7.95;;;;;;;5.14;84.28;98034.97;4977917;28;20406;-69
2023/01/17 09:27:46;;;;;;;17.55;7.25;;;;;;;5.01;83.99;98035.31;4988391;28;20507;-70
2023/01/17 09:30:14;;;;;;;19.77;7.07;;;;;;;4.95;84.26;98033.97;4971948;28;20053;-69
2023/01/17 09:32:41;;;;;;;17.85;7.05;;;;;;;5.23;84.53;98040.31;4976118;28;20070;-68
2023/01/17 09:35:09;;;;;;;17.85;6.28;;;;;;;5.21;83.87;98032.44;4977980;28;20046;-68
2023/01/17 09:37:40;;;;;;;28.17;7.50;;;;;;;5.32;82.97;98035.50;4984790;28;20054;-67
2023/01/17 09:40:17;;;;;;;24.63;7.32;;;;;;;5.32;82.75;98033.56;4977046;28;20062;-68
2023/01/17 09:42:45;;;;;;;21.98;7.63;;;;;;;5.48;82.73;98033.63;4978632;28;20521;-69
2023/01/17 09:45:16;;;;;;;18.65;6.85;;;;;;;5.58;82.37;98031.22;4978378;28;20394;-69
2023/01/17 09:47:46;;;;;;;16.30;6.35;;;;;;;5.53;81.72;98036.13;4977773;28;20050;-70
2023/01/17 09:50:33;;;;;;;17.73;6.60;;;;;;;5.54;81.72;98037.72;4959210;28;20059;-67
2023/01/17 09:53:06;;;;;;;13.60;6.18;;;;;;;5.55;81.93;98031.13;4969281;28;20054;-69
2023/01/17 09:55:52;;;;;;;13.70;6.43;;;;;;;5.66;81.27;98041.22;4972546;28;20043;-69
2023/01/17 09:58:24;;;;;;;18.35;5.93;;;;;;;5.67;81.23;98045.53;4977046;28;20066;-69
2023/01/17 10:01:06;;;;;;;16.88;5.90;;;;;;;5.86;81.66;98042.19;4957316;28;20058;-71
2023/01/17 10:03:45;;;;;;;22.88;10.18;;;;;;;5.56;82.43;98049.88;4975408;28;20055;-68
2023/01/17 10:06:12;;;;;;;21.27;8.23;;;;;;;5.80;81.65;98053.69;4969902;28;20038;-69
2023/01/17 10:08:56;;;;;;;18.48;6.38;;;;;;;6.03;80.39;98058.31;4977962;28;20070;-73
2023/01/17 10:11:36;;;;;;;16.85;6.80;;;;;;;5.97;79.53;98059.69;4978228;28;20053;-68
2023/01/17 10:14:26;;;;;;;17.13;6.85;;;;;;;6.03;79.80;98061.03;4971784;28;20058;-66
2023/01/17 10:17:07;;;;;;;19.77;8.27;;;;;;;5.89;79.89;98059.84;4980774;28;20051;-67
2023/01/17 10:20:03;;;;;;;28.27;9.48;;;;;;;5.70;79.58;98060.44;4976360;28;20054;-63
2023/01/17 10:23:02;;;;;;;24.85;9.18;;;;;;;5.75;80.72;98068.38;4989734;28;20066;-66
2023/01/17 10:25:51;;;;;;;26.75;10.93;;;;;;;5.29;82.06;98058.00;4977208;28;20062;-68
2023/01/17 10:28:25;;;;;;;21.25;9.30;;;;;;;5.33;82.57;98059.72;4957214;28;20426;-65
2023/01/17 10:31:02;;;;;;;21.63;9.20;;;;;;;5.59;80.98;98056.59;4976205;28;20050;-69
2023/01/17 10:33:53;;;;;;;22.35;9.75;;;;;;;5.22;82.80;98069.50;4990275;28;20054;-64
2023/01/17 10:36:26;;;;;;;21.85;9.35;;;;;;;5.09;82.32;98058.97;4990934;28;20039;-69
2023/01/17 10:39:01;;;;;;;23.20;9.85;;;;;;;5.21;83.67;98056.22;4959501;28;21075;-65
2023/01/17 10:41:42;;;;;;;23.30;10.13;;;;;;;4.79;84.33;98044.75;4989270;28;20053;-65
2023/01/17 10:44:48;;;;;;;24.88;10.05;;;;;;;4.89;85.48;98057.13;4973512;28;20066;-65
2023/01/17 10:47:26;;;;;;;26.13;10.02;;;;;;;5.11;84.18;98068.38;4982113;28;20484;-63
2023/01/17 10:50:00;;;;;;;20.77;9.75;;;;;;;5.06;84.24;98059.63;4959724;28;20051;-69
2023/01/17 10:52:37;;;;;;;17.83;9.80;;;;;;;5.09;84.55;98062.47;4952585;28;20046;-66
2023/01/17 10:55:20;;;;;;;21.10;9.30;;;;;;;5.22;83.70;98052.34;4975014;28;20058;-67
2023/01/17 10:57:48;;;;;;;19.83;9.20;;;;;;;5.31;83.50;98047.56;4975265;28;20042;-65
2023/01/17 11:00:49;;;;;;;19.35;8.77;;;;;;;4.99;83.62;98053.94;4980900;28;20065;-66
2023/01/17 11:03:19;;;;;;;17.95;8.77;;;;;;;5.03;84.24;98052.13;4986044;28;20061;-64
2023/01/17 11:06:20;;;;;;;26.50;9.70;;;;;;;5.07;83.82;98044.88;4971443;28;20410;-64
2023/01/17 11:08:59;;;;;;;17.65;8.90;;;;;;;5.01;85.03;98038.84;4971577;28;20525;-66
2023/01/17 11:11:30;;;;;;;18.42;8.38;;;;;;;5.04;84.77;98035.41;4959600;28;20517;-65
2023/01/17 11:14:00;;;;;;;20.10;8.95;;;;;;;5.38;84.13;98036.84;4953366;28;20162;-66
2023/01/17 11:16:32;;;;;;;20.85;8.15;;;;;;;5.53;82.60;98019.75;4982567;28;20082;-65
2023/01/17 11:19:07;;;;;;;18.92;7.78;;;;;;;5.50;82.66;98031.38;4985891;28;20074;-66
2023/01/17 11:21:37;;;;;;;17.08;8.05;;;;;;;5.62;82.26;98034.84;4973574;28;20509;-65
2023/01/17 11:24:10;;;;;;;11.73;6.72;;;;;;;5.84;81.79;98022.63;4969600;28;20050;-65
2023/01/17 11:26:46;;;;;;;16.65;7.30;;;;;;;5.87;81.47;98023.88;4981978;28;20065;-67
2023/01/17 11:29:22;;;;;;;14.68;7.95;;;;;;;5.96;81.47;98022.59;4970790;28;20043;-65
2023/01/17 11:31:50;;;;;;;16.27;7.40;;;;;;;5.72;80.82;98019.91;4981850;28;20054;-65
2023/01/17 11:34:23;;;;;;;17.17;7.65;;;;;;;5.93;81.30;98014.31;4974415;28;20158;-66
2023/01/17 11:37:16;;;;;;;14.25;7.03;;;;;;;5.69;80.35;98015.16;4976239;28;20047;-66
2023/01/17 11:39:46;;;;;;;18.73;8.48;;;;;;;5.73;81.42;98014.13;4987165;28;20062;-65
2023/01/17 11:42:36;;;;;;;22.35;7.82;;;;;;;5.60;81.67;98014.50;4978137;28;20055;-66
2023/01/17 11:45:22;;;;;;;17.20;8.35;;;;;;;5.70;81.72;98014.03;4971020;28;20047;-65
2023/01/17 11:48:12;;;;;;;28.63;12.32;;;;;;;5.71;82.04;98018.34;4990250;28;20510;-65
2023/01/17 11:50:41;;;;;;;23.65;10.02;;;;;;;5.42;82.63;98011.25;4975013;28;20490;-66
2023/01/17 11:53:30;;;;;;;20.45;10.20;;;;;;;5.31;83.07;98007.44;4976085;28;20053;-65
2023/01/17 11:56:04;;;;;;;20.60;9.18;;;;;;;5.06;83.79;98015.97;4958218;28;20042;-66
2023/01/17 11:58:33;;;;;;;17.55;8.45;;;;;;;5.29;83.82;98014.34;4989113;28;20050;-66
2023/01/17 12:01:09;;;;;;;18.60;8.63;;;;;;;5.36;82.71;98011.84;4969669;28;20050;-66
2023/01/17 12:03:59;;;;;;;22.75;8.80;;;;;;;5.34;82.97;97995.00;4971239;28;20070;-66
2023/01/17 12:06:45;;;;;;;22.27;9.07;;;;;;;5.38;83.85;97999.44;4978425;28;20055;-66
2023/01/17 12:09:44;;;;;;;23.88;9.75;;;;;;;5.48;82.84;98004.41;4972302;28;20058;-66
2023/01/17 12:15:22;;;;;;;25.88;8.95;;;;;;;5.63;82.57;97998.22;4989886;28;20062;-66
2023/01/17 12:18:41;;;;;;;22.20;10.45;;;;;;;5.26;83.09;97988.56;4979597;28;20035;-67
2023/01/17 12:21:45;;;;;;;18.33;7.80;;;;;;;5.01;83.96;97987.00;4963517;28;20062;-67
2023/01/17 12:24:22;;;;;;;18.33;8.85;;;;;;;5.22;84.11;97995.84;4955788;28;20055;-67
2023/01/17 12:27:28;;;;;;;20.15;8.23;;;;;;;5.55;83.06;97987.44;4992364;28;20161;-66
2023/01/17 12:30:17;;;;;;;22.23;8.68;;;;;;;5.30;83.58;97983.22;4967870;28;20059;-66
2023/01/17 12:33:07;;;;;;;25.13;9.52;;;;;;;5.37;83.78;97989.66;4998850;28;20050;-66
2023/01/17 12:35:40;;;;;;;23.75;12.18;;;;;;;5.22;83.96;97982.19;4976933;28;20046;-66
2023/01/17 12:38:11;;;;;;;23.30;9.63;;;;;;;5.18;84.31;97975.81;4958305;28;20049;-65
2023/01/17 12:41:25;;;;;;;26.80;9.45;;;;;;;5.18;84.00;97975.03;4978826;28;20054;-67
2023/01/17 12:43:55;;;;;;;23.67;9.15;;;;;;;5.10;84.46;97984.94;4993670;28;20046;-66
2023/01/17 12:46:32;;;;;;;17.52;7.97;;;;;;;4.95;85.63;97980.19;4993233;28;20054;-66
2023/01/17 12:49:20;;;;;;;16.83;8.68;;;;;;;5.11;85.33;97974.84;4975647;28;20066;-67
2023/01/17 12:51:52;;;;;;;21.92;8.00;;;;;;;5.17;83.88;97978.91;4979036;28;20046;-66
2023/01/17 12:54:26;;;;;;;18.23;8.65;;;;;;;5.15;84.58;97976.53;5008915;28;20077;-66
2023/01/17 12:57:01;;;;;;;20.00;8.52;;;;;;;5.24;84.51;97982.66;4974114;28;20055;-66
2023/01/17 12:59:36;;;;;;;15.38;8.27;;;;;;;5.38;83.14;97985.00;4989813;28;20062;-67
2023/01/17 13:02:21;;;;;;;14.30;7.95;;;;;;;5.14;83.39;97980.41;4995619;28;20054;-65
2023/01/17 13:05:02;;;;;;;23.02;8.45;;;;;;;5.24;83.43;97981.84;4956634;28;20102;-65
2023/01/17 13:07:50;;;;;;;21.52;7.95;;;;;;;5.45;82.97;97985.19;4967204;28;20046;-66
2023/01/17 13:10:39;;;;;;;19.95;8.13;;;;;;;5.34;82.35;97970.44;4962827;28;20499;-65
2023/01/17 13:13:20;;;;;;;18.10;7.75;;;;;;;5.46;81.97;97979.41;4977841;28;20062;-67
2023/01/17 13:15:54;;;;;;;18.60;8.18;;;;;;;5.45;81.96;97979.75;4977507;28;20050;-67
2023/01/17 13:18:25;;;;;;;19.27;7.93;;;;;;;5.03;82.09;97984.75;4976421;28;20047;-65
2023/01/17 13:21:17;;;;;;;19.45;8.52;;;;;;;4.71;85.96;97982.94;4976229;28;20055;-66